<?xml version="1.0" encoding="UTF-8" standalone="no" ?>
<gpx xmlns="http://www.topografix.com/GPX/1/1" xmlns:xsi="http://www.w3.org/2001/XMLSchema-instance" xsi:schemaLocation="http://www.topografix.com/GPX/1/1 http://www.topografix.com/GPX/1/1/gpx.xsd" version="1.1" creator="VisuGPX - https://www.visugpx.com">
  <metadata>
    <name>Autour de la boucle de Bazes</name>
  </metadata>
  <trk>
    <name><![CDATA[Autour de la boucle de Bazes]]></name>
    <trkseg>
      <trkpt lat="42.99117" lon="-0.2031">
        <ele>1417</ele>
        <time>2022-01-28T10:28:43+01:00</time>
      </trkpt>
      <trkpt lat="42.99116" lon="-0.20308">
        <ele>1419</ele>
        <time>2022-01-28T10:29:44+01:00</time>
      </trkpt>
      <trkpt lat="42.99115" lon="-0.20339">
        <ele>1417</ele>
        <time>2022-01-28T10:31:03+01:00</time>
      </trkpt>
      <trkpt lat="42.99112" lon="-0.2037">
        <ele>1423</ele>
        <time>2022-01-28T10:31:52+01:00</time>
      </trkpt>
      <trkpt lat="42.99109" lon="-0.20401">
        <ele>1425</ele>
        <time>2022-01-28T10:32:19+01:00</time>
      </trkpt>
      <trkpt lat="42.99103" lon="-0.20431">
        <ele>1430</ele>
        <time>2022-01-28T10:32:48+01:00</time>
      </trkpt>
      <trkpt lat="42.99095" lon="-0.2046">
        <ele>1434</ele>
        <time>2022-01-28T10:33:20+01:00</time>
      </trkpt>
      <trkpt lat="42.99093" lon="-0.20491">
        <ele>1435</ele>
        <time>2022-01-28T10:33:53+01:00</time>
      </trkpt>
      <trkpt lat="42.99091" lon="-0.20523">
        <ele>1438</ele>
        <time>2022-01-28T10:34:20+01:00</time>
      </trkpt>
      <trkpt lat="42.99092" lon="-0.20554">
        <ele>1444</ele>
        <time>2022-01-28T10:34:52+01:00</time>
      </trkpt>
      <trkpt lat="42.99091" lon="-0.20585">
        <ele>1444</ele>
        <time>2022-01-28T10:35:23+01:00</time>
      </trkpt>
      <trkpt lat="42.99087" lon="-0.20616">
        <ele>1451</ele>
        <time>2022-01-28T10:36:15+01:00</time>
      </trkpt>
      <trkpt lat="42.99071" lon="-0.20639">
        <ele>1457</ele>
        <time>2022-01-28T10:36:44+01:00</time>
      </trkpt>
      <trkpt lat="42.99049" lon="-0.20646">
        <ele>1456</ele>
        <time>2022-01-28T10:37:09+01:00</time>
      </trkpt>
      <trkpt lat="42.9903" lon="-0.20665">
        <ele>1455</ele>
        <time>2022-01-28T10:37:38+01:00</time>
      </trkpt>
      <trkpt lat="42.99029" lon="-0.20696">
        <ele>1456</ele>
        <time>2022-01-28T10:38:10+01:00</time>
      </trkpt>
      <trkpt lat="42.99031" lon="-0.20727">
        <ele>1461</ele>
        <time>2022-01-28T10:38:42+01:00</time>
      </trkpt>
      <trkpt lat="42.99032" lon="-0.20758">
        <ele>1461</ele>
        <time>2022-01-28T10:39:16+01:00</time>
      </trkpt>
      <trkpt lat="42.9903" lon="-0.2079">
        <ele>1469</ele>
        <time>2022-01-28T10:39:45+01:00</time>
      </trkpt>
      <trkpt lat="42.99032" lon="-0.20821">
        <ele>1475</ele>
        <time>2022-01-28T10:40:16+01:00</time>
      </trkpt>
      <trkpt lat="42.99043" lon="-0.20849">
        <ele>1476</ele>
        <time>2022-01-28T10:40:46+01:00</time>
      </trkpt>
      <trkpt lat="42.99053" lon="-0.20877">
        <ele>1477</ele>
        <time>2022-01-28T10:41:20+01:00</time>
      </trkpt>
      <trkpt lat="42.99064" lon="-0.20904">
        <ele>1479</ele>
        <time>2022-01-28T10:41:53+01:00</time>
      </trkpt>
      <trkpt lat="42.99079" lon="-0.20928">
        <ele>1483</ele>
        <time>2022-01-28T10:42:25+01:00</time>
      </trkpt>
      <trkpt lat="42.99097" lon="-0.20946">
        <ele>1485</ele>
        <time>2022-01-28T10:42:55+01:00</time>
      </trkpt>
      <trkpt lat="42.99116" lon="-0.20965">
        <ele>1478</ele>
        <time>2022-01-28T10:43:22+01:00</time>
      </trkpt>
      <trkpt lat="42.99125" lon="-0.20993">
        <ele>1485</ele>
        <time>2022-01-28T10:43:53+01:00</time>
      </trkpt>
      <trkpt lat="42.99119" lon="-0.21023">
        <ele>1492</ele>
        <time>2022-01-28T10:44:20+01:00</time>
      </trkpt>
      <trkpt lat="42.99111" lon="-0.21052">
        <ele>1495</ele>
        <time>2022-01-28T10:44:49+01:00</time>
      </trkpt>
      <trkpt lat="42.99106" lon="-0.21082">
        <ele>1499</ele>
        <time>2022-01-28T10:45:19+01:00</time>
      </trkpt>
      <trkpt lat="42.99102" lon="-0.21113">
        <ele>1504</ele>
        <time>2022-01-28T10:45:48+01:00</time>
      </trkpt>
      <trkpt lat="42.99093" lon="-0.21141">
        <ele>1506</ele>
        <time>2022-01-28T10:46:39+01:00</time>
      </trkpt>
      <trkpt lat="42.99083" lon="-0.21169">
        <ele>1506</ele>
        <time>2022-01-28T10:47:07+01:00</time>
      </trkpt>
      <trkpt lat="42.99077" lon="-0.212">
        <ele>1507</ele>
        <time>2022-01-28T10:47:36+01:00</time>
      </trkpt>
      <trkpt lat="42.99065" lon="-0.21226">
        <ele>1509</ele>
        <time>2022-01-28T10:48:03+01:00</time>
      </trkpt>
      <trkpt lat="42.9905" lon="-0.21249">
        <ele>1510</ele>
        <time>2022-01-28T10:48:28+01:00</time>
      </trkpt>
      <trkpt lat="42.99032" lon="-0.21269">
        <ele>1512</ele>
        <time>2022-01-28T10:48:52+01:00</time>
      </trkpt>
      <trkpt lat="42.99017" lon="-0.21292">
        <ele>1512</ele>
        <time>2022-01-28T10:49:15+01:00</time>
      </trkpt>
      <trkpt lat="42.99008" lon="-0.21322">
        <ele>1514</ele>
        <time>2022-01-28T10:49:40+01:00</time>
      </trkpt>
      <trkpt lat="42.98998" lon="-0.2135">
        <ele>1518</ele>
        <time>2022-01-28T10:50:10+01:00</time>
      </trkpt>
      <trkpt lat="42.98987" lon="-0.21377">
        <ele>1524</ele>
        <time>2022-01-28T10:51:28+01:00</time>
      </trkpt>
      <trkpt lat="42.98983" lon="-0.21408">
        <ele>1523</ele>
        <time>2022-01-28T10:51:57+01:00</time>
      </trkpt>
      <trkpt lat="42.98979" lon="-0.21439">
        <ele>1527</ele>
        <time>2022-01-28T10:52:26+01:00</time>
      </trkpt>
      <trkpt lat="42.98975" lon="-0.2147">
        <ele>1527</ele>
        <time>2022-01-28T10:52:54+01:00</time>
      </trkpt>
      <trkpt lat="42.98967" lon="-0.21499">
        <ele>1529</ele>
        <time>2022-01-28T10:53:21+01:00</time>
      </trkpt>
      <trkpt lat="42.98963" lon="-0.2153">
        <ele>1534</ele>
        <time>2022-01-28T10:53:49+01:00</time>
      </trkpt>
      <trkpt lat="42.98952" lon="-0.21558">
        <ele>1536</ele>
        <time>2022-01-28T10:54:17+01:00</time>
      </trkpt>
      <trkpt lat="42.98946" lon="-0.21588">
        <ele>1539</ele>
        <time>2022-01-28T10:54:45+01:00</time>
      </trkpt>
      <trkpt lat="42.98944" lon="-0.21618">
        <ele>1538</ele>
        <time>2022-01-28T10:55:11+01:00</time>
      </trkpt>
      <trkpt lat="42.98942" lon="-0.21649">
        <ele>1541</ele>
        <time>2022-01-28T10:55:37+01:00</time>
      </trkpt>
      <trkpt lat="42.98938" lon="-0.2168">
        <ele>1544</ele>
        <time>2022-01-28T10:56:04+01:00</time>
      </trkpt>
      <trkpt lat="42.98933" lon="-0.2171">
        <ele>1546</ele>
        <time>2022-01-28T10:56:31+01:00</time>
      </trkpt>
      <trkpt lat="42.98932" lon="-0.21741">
        <ele>1548</ele>
        <time>2022-01-28T10:56:58+01:00</time>
      </trkpt>
      <trkpt lat="42.9893" lon="-0.21772">
        <ele>1550</ele>
        <time>2022-01-28T10:57:23+01:00</time>
      </trkpt>
      <trkpt lat="42.98932" lon="-0.21804">
        <ele>1548</ele>
        <time>2022-01-28T10:57:49+01:00</time>
      </trkpt>
      <trkpt lat="42.9893" lon="-0.21835">
        <ele>1547</ele>
        <time>2022-01-28T10:58:16+01:00</time>
      </trkpt>
      <trkpt lat="42.98929" lon="-0.21866">
        <ele>1546</ele>
        <time>2022-01-28T10:58:44+01:00</time>
      </trkpt>
      <trkpt lat="42.98927" lon="-0.21897">
        <ele>1544</ele>
        <time>2022-01-28T10:59:07+01:00</time>
      </trkpt>
      <trkpt lat="42.98922" lon="-0.21928">
        <ele>1550</ele>
        <time>2022-01-28T10:59:35+01:00</time>
      </trkpt>
      <trkpt lat="42.98915" lon="-0.21958">
        <ele>1553</ele>
        <time>2022-01-28T11:00:06+01:00</time>
      </trkpt>
      <trkpt lat="42.98907" lon="-0.21987">
        <ele>1556</ele>
        <time>2022-01-28T11:00:37+01:00</time>
      </trkpt>
      <trkpt lat="42.98901" lon="-0.22017">
        <ele>1559</ele>
        <time>2022-01-28T11:01:08+01:00</time>
      </trkpt>
      <trkpt lat="42.98893" lon="-0.22046">
        <ele>1565</ele>
        <time>2022-01-28T11:01:40+01:00</time>
      </trkpt>
      <trkpt lat="42.9889" lon="-0.22077">
        <ele>1569</ele>
        <time>2022-01-28T11:02:12+01:00</time>
      </trkpt>
      <trkpt lat="42.989" lon="-0.22105">
        <ele>1570</ele>
        <time>2022-01-28T11:02:39+01:00</time>
      </trkpt>
      <trkpt lat="42.9892" lon="-0.2212">
        <ele>1576</ele>
        <time>2022-01-28T11:03:07+01:00</time>
      </trkpt>
      <trkpt lat="42.98941" lon="-0.22131">
        <ele>1571</ele>
        <time>2022-01-28T11:03:32+01:00</time>
      </trkpt>
      <trkpt lat="42.98959" lon="-0.22151">
        <ele>1570</ele>
        <time>2022-01-28T11:03:59+01:00</time>
      </trkpt>
      <trkpt lat="42.98975" lon="-0.22173">
        <ele>1571</ele>
        <time>2022-01-28T11:04:36+01:00</time>
      </trkpt>
      <trkpt lat="42.98982" lon="-0.22203">
        <ele>1578</ele>
        <time>2022-01-28T11:05:04+01:00</time>
      </trkpt>
      <trkpt lat="42.98981" lon="-0.22235">
        <ele>1583</ele>
        <time>2022-01-28T11:06:33+01:00</time>
      </trkpt>
      <trkpt lat="42.98997" lon="-0.22257">
        <ele>1581</ele>
        <time>2022-01-28T11:07:10+01:00</time>
      </trkpt>
      <trkpt lat="42.99015" lon="-0.22277">
        <ele>1581</ele>
        <time>2022-01-28T11:07:38+01:00</time>
      </trkpt>
      <trkpt lat="42.99032" lon="-0.22297">
        <ele>1579</ele>
        <time>2022-01-28T11:08:04+01:00</time>
      </trkpt>
      <trkpt lat="42.99049" lon="-0.2232">
        <ele>1580</ele>
        <time>2022-01-28T11:08:29+01:00</time>
      </trkpt>
      <trkpt lat="42.99061" lon="-0.22348">
        <ele>1581</ele>
        <time>2022-01-28T11:08:54+01:00</time>
      </trkpt>
      <trkpt lat="42.9907" lon="-0.22376">
        <ele>1580</ele>
        <time>2022-01-28T11:09:19+01:00</time>
      </trkpt>
      <trkpt lat="42.99077" lon="-0.22405">
        <ele>1579</ele>
        <time>2022-01-28T11:09:55+01:00</time>
      </trkpt>
      <trkpt lat="42.99088" lon="-0.22432">
        <ele>1574</ele>
        <time>2022-01-28T11:10:42+01:00</time>
      </trkpt>
      <trkpt lat="42.99096" lon="-0.22462">
        <ele>1573</ele>
        <time>2022-01-28T11:11:06+01:00</time>
      </trkpt>
      <trkpt lat="42.99102" lon="-0.22492">
        <ele>1573</ele>
        <time>2022-01-28T11:11:31+01:00</time>
      </trkpt>
      <trkpt lat="42.99111" lon="-0.22521">
        <ele>1572</ele>
        <time>2022-01-28T11:11:55+01:00</time>
      </trkpt>
      <trkpt lat="42.99125" lon="-0.22545">
        <ele>1569</ele>
        <time>2022-01-28T11:12:38+01:00</time>
      </trkpt>
      <trkpt lat="42.9914" lon="-0.22569">
        <ele>1575</ele>
        <time>2022-01-28T11:13:01+01:00</time>
      </trkpt>
      <trkpt lat="42.99151" lon="-0.22596">
        <ele>1575</ele>
        <time>2022-01-28T11:13:26+01:00</time>
      </trkpt>
      <trkpt lat="42.99147" lon="-0.22627">
        <ele>1577</ele>
        <time>2022-01-28T11:13:48+01:00</time>
      </trkpt>
      <trkpt lat="42.99131" lon="-0.22648">
        <ele>1573</ele>
        <time>2022-01-28T11:14:42+01:00</time>
      </trkpt>
      <trkpt lat="42.99111" lon="-0.22666">
        <ele>1573</ele>
        <time>2022-01-28T11:15:03+01:00</time>
      </trkpt>
      <trkpt lat="42.99093" lon="-0.22685">
        <ele>1577</ele>
        <time>2022-01-28T11:15:25+01:00</time>
      </trkpt>
      <trkpt lat="42.99073" lon="-0.22701">
        <ele>1579</ele>
        <time>2022-01-28T11:15:49+01:00</time>
      </trkpt>
      <trkpt lat="42.99051" lon="-0.22711">
        <ele>1579</ele>
        <time>2022-01-28T11:17:12+01:00</time>
      </trkpt>
      <trkpt lat="42.99028" lon="-0.22704">
        <ele>1580</ele>
        <time>2022-01-28T11:17:36+01:00</time>
      </trkpt>
      <trkpt lat="42.99009" lon="-0.22688">
        <ele>1577</ele>
        <time>2022-01-28T11:18:00+01:00</time>
      </trkpt>
      <trkpt lat="42.98987" lon="-0.2268">
        <ele>1580</ele>
        <time>2022-01-28T11:24:44+01:00</time>
      </trkpt>
      <trkpt lat="42.98965" lon="-0.22669">
        <ele>1579</ele>
        <time>2022-01-28T11:25:11+01:00</time>
      </trkpt>
      <trkpt lat="42.98943" lon="-0.22666">
        <ele>1579</ele>
        <time>2022-01-28T11:25:34+01:00</time>
      </trkpt>
      <trkpt lat="42.9892" lon="-0.22674">
        <ele>1580</ele>
        <time>2022-01-28T11:25:58+01:00</time>
      </trkpt>
      <trkpt lat="42.98898" lon="-0.22681">
        <ele>1579</ele>
        <time>2022-01-28T11:26:24+01:00</time>
      </trkpt>
      <trkpt lat="42.98877" lon="-0.22689">
        <ele>1580</ele>
        <time>2022-01-28T11:26:47+01:00</time>
      </trkpt>
      <trkpt lat="42.98854" lon="-0.22697">
        <ele>1582</ele>
        <time>2022-01-28T11:27:12+01:00</time>
      </trkpt>
      <trkpt lat="42.98832" lon="-0.22708">
        <ele>1581</ele>
        <time>2022-01-28T11:27:37+01:00</time>
      </trkpt>
      <trkpt lat="42.98811" lon="-0.22719">
        <ele>1582</ele>
        <time>2022-01-28T11:29:21+01:00</time>
      </trkpt>
      <trkpt lat="42.9879" lon="-0.22731">
        <ele>1581</ele>
        <time>2022-01-28T11:29:44+01:00</time>
      </trkpt>
      <trkpt lat="42.98768" lon="-0.22741">
        <ele>1583</ele>
        <time>2022-01-28T11:30:07+01:00</time>
      </trkpt>
      <trkpt lat="42.98745" lon="-0.22745">
        <ele>1583</ele>
        <time>2022-01-28T11:30:31+01:00</time>
      </trkpt>
      <trkpt lat="42.98724" lon="-0.22757">
        <ele>1583</ele>
        <time>2022-01-28T11:30:54+01:00</time>
      </trkpt>
      <trkpt lat="42.98705" lon="-0.22774">
        <ele>1585</ele>
        <time>2022-01-28T11:31:18+01:00</time>
      </trkpt>
      <trkpt lat="42.98696" lon="-0.22803">
        <ele>1586</ele>
        <time>2022-01-28T11:31:40+01:00</time>
      </trkpt>
      <trkpt lat="42.98677" lon="-0.22818">
        <ele>1584</ele>
        <time>2022-01-28T11:32:04+01:00</time>
      </trkpt>
      <trkpt lat="42.98653" lon="-0.22823">
        <ele>1583</ele>
        <time>2022-01-28T11:32:49+01:00</time>
      </trkpt>
      <trkpt lat="42.98631" lon="-0.2282">
        <ele>1581</ele>
        <time>2022-01-28T11:33:41+01:00</time>
      </trkpt>
      <trkpt lat="42.98607" lon="-0.22823">
        <ele>1582</ele>
        <time>2022-01-28T11:34:10+01:00</time>
      </trkpt>
      <trkpt lat="42.98585" lon="-0.22831">
        <ele>1582</ele>
        <time>2022-01-28T11:34:36+01:00</time>
      </trkpt>
      <trkpt lat="42.98564" lon="-0.22818">
        <ele>1585</ele>
        <time>2022-01-28T11:35:36+01:00</time>
      </trkpt>
      <trkpt lat="42.98543" lon="-0.22809">
        <ele>1589</ele>
        <time>2022-01-28T11:36:29+01:00</time>
      </trkpt>
      <trkpt lat="42.98521" lon="-0.22801">
        <ele>1597</ele>
        <time>2022-01-28T11:39:48+01:00</time>
      </trkpt>
      <trkpt lat="42.98498" lon="-0.22793">
        <ele>1600</ele>
        <time>2022-01-28T11:40:19+01:00</time>
      </trkpt>
      <trkpt lat="42.98475" lon="-0.22787">
        <ele>1605</ele>
        <time>2022-01-28T11:40:51+01:00</time>
      </trkpt>
      <trkpt lat="42.98453" lon="-0.2278">
        <ele>1611</ele>
        <time>2022-01-28T11:41:26+01:00</time>
      </trkpt>
      <trkpt lat="42.98431" lon="-0.22773">
        <ele>1620</ele>
        <time>2022-01-28T11:42:05+01:00</time>
      </trkpt>
      <trkpt lat="42.98409" lon="-0.22767">
        <ele>1626</ele>
        <time>2022-01-28T11:42:45+01:00</time>
      </trkpt>
      <trkpt lat="42.98387" lon="-0.22773">
        <ele>1632</ele>
        <time>2022-01-28T11:43:25+01:00</time>
      </trkpt>
      <trkpt lat="42.9837" lon="-0.22794">
        <ele>1637</ele>
        <time>2022-01-28T11:44:38+01:00</time>
      </trkpt>
      <trkpt lat="42.98356" lon="-0.22818">
        <ele>1644</ele>
        <time>2022-01-28T11:45:22+01:00</time>
      </trkpt>
      <trkpt lat="42.98337" lon="-0.22835">
        <ele>1650</ele>
        <time>2022-01-28T11:49:14+01:00</time>
      </trkpt>
      <trkpt lat="42.98357" lon="-0.22819">
        <ele>1643</ele>
        <time>2022-01-28T12:35:02+01:00</time>
      </trkpt>
      <trkpt lat="42.98371" lon="-0.22794">
        <ele>1638</ele>
        <time>2022-01-28T12:35:42+01:00</time>
      </trkpt>
      <trkpt lat="42.98386" lon="-0.22771">
        <ele>1632</ele>
        <time>2022-01-28T12:36:16+01:00</time>
      </trkpt>
      <trkpt lat="42.98398" lon="-0.22743">
        <ele>1626</ele>
        <time>2022-01-28T12:37:55+01:00</time>
      </trkpt>
      <trkpt lat="42.98412" lon="-0.22719">
        <ele>1624</ele>
        <time>2022-01-28T12:38:18+01:00</time>
      </trkpt>
      <trkpt lat="42.98431" lon="-0.227">
        <ele>1623</ele>
        <time>2022-01-28T12:38:43+01:00</time>
      </trkpt>
      <trkpt lat="42.9845" lon="-0.22684">
        <ele>1621</ele>
        <time>2022-01-28T12:39:07+01:00</time>
      </trkpt>
      <trkpt lat="42.9847" lon="-0.227">
        <ele>1621</ele>
        <time>2022-01-28T12:39:32+01:00</time>
      </trkpt>
      <trkpt lat="42.98484" lon="-0.22724">
        <ele>1616</ele>
        <time>2022-01-28T12:39:59+01:00</time>
      </trkpt>
      <trkpt lat="42.985" lon="-0.22748">
        <ele>1611</ele>
        <time>2022-01-28T12:40:27+01:00</time>
      </trkpt>
      <trkpt lat="42.98518" lon="-0.22767">
        <ele>1607</ele>
        <time>2022-01-28T12:40:52+01:00</time>
      </trkpt>
      <trkpt lat="42.98535" lon="-0.22789">
        <ele>1600</ele>
        <time>2022-01-28T12:41:23+01:00</time>
      </trkpt>
      <trkpt lat="42.98553" lon="-0.22807">
        <ele>1594</ele>
        <time>2022-01-28T12:41:58+01:00</time>
      </trkpt>
      <trkpt lat="42.98576" lon="-0.2281">
        <ele>1590</ele>
        <time>2022-01-28T12:42:42+01:00</time>
      </trkpt>
      <trkpt lat="42.98594" lon="-0.22828">
        <ele>1583</ele>
        <time>2022-01-28T12:43:36+01:00</time>
      </trkpt>
      <trkpt lat="42.98616" lon="-0.22822">
        <ele>1584</ele>
        <time>2022-01-28T12:44:27+01:00</time>
      </trkpt>
      <trkpt lat="42.98639" lon="-0.22819">
        <ele>1587</ele>
        <time>2022-01-28T12:44:53+01:00</time>
      </trkpt>
      <trkpt lat="42.98662" lon="-0.2282">
        <ele>1586</ele>
        <time>2022-01-28T12:45:18+01:00</time>
      </trkpt>
      <trkpt lat="42.98684" lon="-0.22813">
        <ele>1581</ele>
        <time>2022-01-28T12:45:45+01:00</time>
      </trkpt>
      <trkpt lat="42.98698" lon="-0.22789">
        <ele>1583</ele>
        <time>2022-01-28T12:46:08+01:00</time>
      </trkpt>
      <trkpt lat="42.98715" lon="-0.22767">
        <ele>1582</ele>
        <time>2022-01-28T12:46:34+01:00</time>
      </trkpt>
      <trkpt lat="42.98735" lon="-0.22753">
        <ele>1580</ele>
        <time>2022-01-28T12:47:00+01:00</time>
      </trkpt>
      <trkpt lat="42.98758" lon="-0.22746">
        <ele>1584</ele>
        <time>2022-01-28T12:47:22+01:00</time>
      </trkpt>
      <trkpt lat="42.9878" lon="-0.22736">
        <ele>1584</ele>
        <time>2022-01-28T12:47:47+01:00</time>
      </trkpt>
      <trkpt lat="42.98801" lon="-0.22722">
        <ele>1582</ele>
        <time>2022-01-28T12:48:10+01:00</time>
      </trkpt>
      <trkpt lat="42.98823" lon="-0.22712">
        <ele>1583</ele>
        <time>2022-01-28T12:48:32+01:00</time>
      </trkpt>
      <trkpt lat="42.98844" lon="-0.227">
        <ele>1585</ele>
        <time>2022-01-28T12:48:53+01:00</time>
      </trkpt>
      <trkpt lat="42.98867" lon="-0.22693">
        <ele>1584</ele>
        <time>2022-01-28T12:49:15+01:00</time>
      </trkpt>
      <trkpt lat="42.98889" lon="-0.22687">
        <ele>1586</ele>
        <time>2022-01-28T12:49:35+01:00</time>
      </trkpt>
      <trkpt lat="42.98911" lon="-0.22678">
        <ele>1582</ele>
        <time>2022-01-28T12:49:58+01:00</time>
      </trkpt>
      <trkpt lat="42.98934" lon="-0.22671">
        <ele>1586</ele>
        <time>2022-01-28T12:50:19+01:00</time>
      </trkpt>
      <trkpt lat="42.98956" lon="-0.22674">
        <ele>1584</ele>
        <time>2022-01-28T12:50:41+01:00</time>
      </trkpt>
      <trkpt lat="42.98978" lon="-0.22681">
        <ele>1582</ele>
        <time>2022-01-28T12:51:04+01:00</time>
      </trkpt>
      <trkpt lat="42.98999" lon="-0.22695">
        <ele>1582</ele>
        <time>2022-01-28T12:51:38+01:00</time>
      </trkpt>
      <trkpt lat="42.9902" lon="-0.22707">
        <ele>1578</ele>
        <time>2022-01-28T12:52:20+01:00</time>
      </trkpt>
      <trkpt lat="42.99043" lon="-0.22712">
        <ele>1574</ele>
        <time>2022-01-28T12:52:44+01:00</time>
      </trkpt>
      <trkpt lat="42.99065" lon="-0.22705">
        <ele>1573</ele>
        <time>2022-01-28T12:53:08+01:00</time>
      </trkpt>
      <trkpt lat="42.99085" lon="-0.22689">
        <ele>1573</ele>
        <time>2022-01-28T12:53:30+01:00</time>
      </trkpt>
      <trkpt lat="42.99104" lon="-0.22671">
        <ele>1578</ele>
        <time>2022-01-28T12:53:49+01:00</time>
      </trkpt>
      <trkpt lat="42.99124" lon="-0.22656">
        <ele>1582</ele>
        <time>2022-01-28T12:54:07+01:00</time>
      </trkpt>
      <trkpt lat="42.99142" lon="-0.22637">
        <ele>1580</ele>
        <time>2022-01-28T12:54:34+01:00</time>
      </trkpt>
      <trkpt lat="42.99158" lon="-0.22614">
        <ele>1577</ele>
        <time>2022-01-28T12:55:23+01:00</time>
      </trkpt>
      <trkpt lat="42.99168" lon="-0.22587">
        <ele>1573</ele>
        <time>2022-01-28T12:55:50+01:00</time>
      </trkpt>
      <trkpt lat="42.99159" lon="-0.22559">
        <ele>1568</ele>
        <time>2022-01-28T12:56:26+01:00</time>
      </trkpt>
      <trkpt lat="42.99149" lon="-0.2253">
        <ele>1567</ele>
        <time>2022-01-28T12:56:51+01:00</time>
      </trkpt>
      <trkpt lat="42.99141" lon="-0.225">
        <ele>1564</ele>
        <time>2022-01-28T12:57:17+01:00</time>
      </trkpt>
      <trkpt lat="42.99159" lon="-0.2248">
        <ele>1559</ele>
        <time>2022-01-28T12:59:06+01:00</time>
      </trkpt>
      <trkpt lat="42.99163" lon="-0.22449">
        <ele>1553</ele>
        <time>2022-01-28T12:59:41+01:00</time>
      </trkpt>
      <trkpt lat="42.99165" lon="-0.22419">
        <ele>1543</ele>
        <time>2022-01-28T13:00:23+01:00</time>
      </trkpt>
      <trkpt lat="42.99187" lon="-0.22428">
        <ele>1538</ele>
        <time>2022-01-28T13:00:59+01:00</time>
      </trkpt>
      <trkpt lat="42.99206" lon="-0.22445">
        <ele>1532</ele>
        <time>2022-01-28T13:01:38+01:00</time>
      </trkpt>
      <trkpt lat="42.99226" lon="-0.22459">
        <ele>1530</ele>
        <time>2022-01-28T13:02:04+01:00</time>
      </trkpt>
      <trkpt lat="42.99244" lon="-0.22479">
        <ele>1528</ele>
        <time>2022-01-28T13:02:32+01:00</time>
      </trkpt>
      <trkpt lat="42.99267" lon="-0.22485">
        <ele>1529</ele>
        <time>2022-01-28T13:02:54+01:00</time>
      </trkpt>
      <trkpt lat="42.99289" lon="-0.22477">
        <ele>1525</ele>
        <time>2022-01-28T13:03:22+01:00</time>
      </trkpt>
      <trkpt lat="42.99308" lon="-0.22458">
        <ele>1522</ele>
        <time>2022-01-28T13:03:49+01:00</time>
      </trkpt>
      <trkpt lat="42.99319" lon="-0.2243">
        <ele>1522</ele>
        <time>2022-01-28T13:04:09+01:00</time>
      </trkpt>
      <trkpt lat="42.99333" lon="-0.22406">
        <ele>1516</ele>
        <time>2022-01-28T13:04:49+01:00</time>
      </trkpt>
      <trkpt lat="42.99345" lon="-0.22379">
        <ele>1510</ele>
        <time>2022-01-28T13:05:20+01:00</time>
      </trkpt>
      <trkpt lat="42.99355" lon="-0.22352">
        <ele>1510</ele>
        <time>2022-01-28T13:05:53+01:00</time>
      </trkpt>
      <trkpt lat="42.99364" lon="-0.22323">
        <ele>1499</ele>
        <time>2022-01-28T13:06:26+01:00</time>
      </trkpt>
      <trkpt lat="42.9937" lon="-0.22293">
        <ele>1497</ele>
        <time>2022-01-28T13:06:54+01:00</time>
      </trkpt>
      <trkpt lat="42.99378" lon="-0.22264">
        <ele>1493</ele>
        <time>2022-01-28T13:07:23+01:00</time>
      </trkpt>
      <trkpt lat="42.99388" lon="-0.22237">
        <ele>1490</ele>
        <time>2022-01-28T13:07:52+01:00</time>
      </trkpt>
      <trkpt lat="42.99393" lon="-0.22206">
        <ele>1494</ele>
        <time>2022-01-28T13:08:26+01:00</time>
      </trkpt>
      <trkpt lat="42.99403" lon="-0.22179">
        <ele>1485</ele>
        <time>2022-01-28T13:09:00+01:00</time>
      </trkpt>
      <trkpt lat="42.9942" lon="-0.22158">
        <ele>1480</ele>
        <time>2022-01-28T13:09:27+01:00</time>
      </trkpt>
      <trkpt lat="42.99431" lon="-0.2213">
        <ele>1482</ele>
        <time>2022-01-28T13:09:52+01:00</time>
      </trkpt>
      <trkpt lat="42.99442" lon="-0.22103">
        <ele>1471</ele>
        <time>2022-01-28T13:10:26+01:00</time>
      </trkpt>
      <trkpt lat="42.99459" lon="-0.22081">
        <ele>1464</ele>
        <time>2022-01-28T13:10:55+01:00</time>
      </trkpt>
      <trkpt lat="42.9948" lon="-0.22071">
        <ele>1459</ele>
        <time>2022-01-28T13:11:25+01:00</time>
      </trkpt>
      <trkpt lat="42.99502" lon="-0.22062">
        <ele>1455</ele>
        <time>2022-01-28T13:11:56+01:00</time>
      </trkpt>
      <trkpt lat="42.99519" lon="-0.22042">
        <ele>1455</ele>
        <time>2022-01-28T13:12:22+01:00</time>
      </trkpt>
      <trkpt lat="42.99539" lon="-0.22028">
        <ele>1448</ele>
        <time>2022-01-28T13:13:07+01:00</time>
      </trkpt>
      <trkpt lat="42.9956" lon="-0.22014">
        <ele>1437</ele>
        <time>2022-01-28T13:13:55+01:00</time>
      </trkpt>
      <trkpt lat="42.9958" lon="-0.22">
        <ele>1431</ele>
        <time>2022-01-28T13:14:25+01:00</time>
      </trkpt>
      <trkpt lat="42.99601" lon="-0.21986">
        <ele>1427</ele>
        <time>2022-01-28T13:14:53+01:00</time>
      </trkpt>
      <trkpt lat="42.9962" lon="-0.2197">
        <ele>1424</ele>
        <time>2022-01-28T13:15:21+01:00</time>
      </trkpt>
      <trkpt lat="42.9964" lon="-0.21952">
        <ele>1421</ele>
        <time>2022-01-28T13:15:47+01:00</time>
      </trkpt>
      <trkpt lat="42.99659" lon="-0.21937">
        <ele>1419</ele>
        <time>2022-01-28T13:16:13+01:00</time>
      </trkpt>
      <trkpt lat="42.99681" lon="-0.21923">
        <ele>1415</ele>
        <time>2022-01-28T13:16:43+01:00</time>
      </trkpt>
      <trkpt lat="42.99702" lon="-0.21912">
        <ele>1411</ele>
        <time>2022-01-28T13:17:07+01:00</time>
      </trkpt>
      <trkpt lat="42.99724" lon="-0.21905">
        <ele>1408</ele>
        <time>2022-01-28T13:17:38+01:00</time>
      </trkpt>
      <trkpt lat="42.99723" lon="-0.21875">
        <ele>1396</ele>
        <time>2022-01-28T13:19:05+01:00</time>
      </trkpt>
      <trkpt lat="42.99702" lon="-0.21864">
        <ele>1394</ele>
        <time>2022-01-28T13:19:32+01:00</time>
      </trkpt>
      <trkpt lat="42.99679" lon="-0.21857">
        <ele>1390</ele>
        <time>2022-01-28T13:19:58+01:00</time>
      </trkpt>
      <trkpt lat="42.99657" lon="-0.2185">
        <ele>1391</ele>
        <time>2022-01-28T13:20:27+01:00</time>
      </trkpt>
      <trkpt lat="42.99634" lon="-0.21843">
        <ele>1378</ele>
        <time>2022-01-28T13:21:12+01:00</time>
      </trkpt>
      <trkpt lat="42.99611" lon="-0.21839">
        <ele>1373</ele>
        <time>2022-01-28T13:21:42+01:00</time>
      </trkpt>
      <trkpt lat="42.99588" lon="-0.21843">
        <ele>1375</ele>
        <time>2022-01-28T13:22:06+01:00</time>
      </trkpt>
      <trkpt lat="42.99566" lon="-0.21842">
        <ele>1385</ele>
        <time>2022-01-28T13:22:28+01:00</time>
      </trkpt>
      <trkpt lat="42.99543" lon="-0.21848">
        <ele>1388</ele>
        <time>2022-01-28T13:22:58+01:00</time>
      </trkpt>
      <trkpt lat="42.99522" lon="-0.21838">
        <ele>1388</ele>
        <time>2022-01-28T13:23:59+01:00</time>
      </trkpt>
      <trkpt lat="42.99538" lon="-0.21817">
        <ele>1370</ele>
        <time>2022-01-28T13:24:57+01:00</time>
      </trkpt>
      <trkpt lat="42.99557" lon="-0.21798">
        <ele>1367</ele>
        <time>2022-01-28T13:25:27+01:00</time>
      </trkpt>
      <trkpt lat="42.9957" lon="-0.21772">
        <ele>1369</ele>
        <time>2022-01-28T13:25:51+01:00</time>
      </trkpt>
      <trkpt lat="42.99588" lon="-0.21753">
        <ele>1366</ele>
        <time>2022-01-28T13:26:19+01:00</time>
      </trkpt>
      <trkpt lat="42.99606" lon="-0.21734">
        <ele>1360</ele>
        <time>2022-01-28T13:26:50+01:00</time>
      </trkpt>
      <trkpt lat="42.99621" lon="-0.2171">
        <ele>1346</ele>
        <time>2022-01-28T13:27:29+01:00</time>
      </trkpt>
      <trkpt lat="42.99637" lon="-0.21687">
        <ele>1341</ele>
        <time>2022-01-28T13:28:00+01:00</time>
      </trkpt>
      <trkpt lat="42.9965" lon="-0.21661">
        <ele>1338</ele>
        <time>2022-01-28T13:28:23+01:00</time>
      </trkpt>
      <trkpt lat="42.99662" lon="-0.21635">
        <ele>1336</ele>
        <time>2022-01-28T13:28:48+01:00</time>
      </trkpt>
      <trkpt lat="42.99662" lon="-0.21604">
        <ele>1335</ele>
        <time>2022-01-28T13:29:36+01:00</time>
      </trkpt>
      <trkpt lat="42.99646" lon="-0.21582">
        <ele>1328</ele>
        <time>2022-01-28T13:30:30+01:00</time>
      </trkpt>
      <trkpt lat="42.99624" lon="-0.21573">
        <ele>1324</ele>
        <time>2022-01-28T13:30:54+01:00</time>
      </trkpt>
      <trkpt lat="42.99602" lon="-0.21563">
        <ele>1324</ele>
        <time>2022-01-28T13:31:17+01:00</time>
      </trkpt>
      <trkpt lat="42.99579" lon="-0.21559">
        <ele>1327</ele>
        <time>2022-01-28T13:31:40+01:00</time>
      </trkpt>
      <trkpt lat="42.99556" lon="-0.21557">
        <ele>1327</ele>
        <time>2022-01-28T13:32:02+01:00</time>
      </trkpt>
      <trkpt lat="42.99534" lon="-0.2155">
        <ele>1334</ele>
        <time>2022-01-28T13:32:24+01:00</time>
      </trkpt>
      <trkpt lat="42.99511" lon="-0.21543">
        <ele>1342</ele>
        <time>2022-01-28T13:32:45+01:00</time>
      </trkpt>
      <trkpt lat="42.99488" lon="-0.21535">
        <ele>1356</ele>
        <time>2022-01-28T13:33:02+01:00</time>
      </trkpt>
      <trkpt lat="42.99465" lon="-0.21536">
        <ele>1342</ele>
        <time>2022-01-28T13:33:24+01:00</time>
      </trkpt>
      <trkpt lat="42.99444" lon="-0.21526">
        <ele>1331</ele>
        <time>2022-01-28T13:34:06+01:00</time>
      </trkpt>
      <trkpt lat="42.99432" lon="-0.215">
        <ele>1335</ele>
        <time>2022-01-28T13:34:29+01:00</time>
      </trkpt>
      <trkpt lat="42.99435" lon="-0.21469">
        <ele>1335</ele>
        <time>2022-01-28T13:34:55+01:00</time>
      </trkpt>
      <trkpt lat="42.99455" lon="-0.21454">
        <ele>1350</ele>
        <time>2022-01-28T13:35:19+01:00</time>
      </trkpt>
      <trkpt lat="42.99475" lon="-0.21438">
        <ele>1354</ele>
        <time>2022-01-28T13:35:42+01:00</time>
      </trkpt>
      <trkpt lat="42.99496" lon="-0.21425">
        <ele>1358</ele>
        <time>2022-01-28T13:36:05+01:00</time>
      </trkpt>
      <trkpt lat="42.9952" lon="-0.21426">
        <ele>1357</ele>
        <time>2022-01-28T13:36:28+01:00</time>
      </trkpt>
      <trkpt lat="42.99542" lon="-0.21417">
        <ele>1356</ele>
        <time>2022-01-28T13:36:49+01:00</time>
      </trkpt>
      <trkpt lat="42.99565" lon="-0.21411">
        <ele>1354</ele>
        <time>2022-01-28T13:37:14+01:00</time>
      </trkpt>
      <trkpt lat="42.99588" lon="-0.21404">
        <ele>1359</ele>
        <time>2022-01-28T13:37:40+01:00</time>
      </trkpt>
      <trkpt lat="42.9961" lon="-0.21399">
        <ele>1360</ele>
        <time>2022-01-28T13:38:03+01:00</time>
      </trkpt>
      <trkpt lat="42.99633" lon="-0.21396">
        <ele>1359</ele>
        <time>2022-01-28T13:38:27+01:00</time>
      </trkpt>
      <trkpt lat="42.99656" lon="-0.21398">
        <ele>1362</ele>
        <time>2022-01-28T13:38:54+01:00</time>
      </trkpt>
      <trkpt lat="42.99679" lon="-0.21397">
        <ele>1365</ele>
        <time>2022-01-28T13:39:25+01:00</time>
      </trkpt>
      <trkpt lat="42.99702" lon="-0.21394">
        <ele>1365</ele>
        <time>2022-01-28T13:39:51+01:00</time>
      </trkpt>
      <trkpt lat="42.99724" lon="-0.21386">
        <ele>1370</ele>
        <time>2022-01-28T13:40:13+01:00</time>
      </trkpt>
      <trkpt lat="42.99746" lon="-0.21379">
        <ele>1370</ele>
        <time>2022-01-28T13:40:35+01:00</time>
      </trkpt>
      <trkpt lat="42.99768" lon="-0.21367">
        <ele>1371</ele>
        <time>2022-01-28T13:40:57+01:00</time>
      </trkpt>
      <trkpt lat="42.9979" lon="-0.21357">
        <ele>1365</ele>
        <time>2022-01-28T13:41:23+01:00</time>
      </trkpt>
      <trkpt lat="42.99807" lon="-0.21338">
        <ele>1360</ele>
        <time>2022-01-28T13:41:48+01:00</time>
      </trkpt>
      <trkpt lat="42.9982" lon="-0.21311">
        <ele>1363</ele>
        <time>2022-01-28T13:42:10+01:00</time>
      </trkpt>
      <trkpt lat="42.99827" lon="-0.2128">
        <ele>1366</ele>
        <time>2022-01-28T13:42:30+01:00</time>
      </trkpt>
      <trkpt lat="42.99826" lon="-0.21248">
        <ele>1362</ele>
        <time>2022-01-28T13:42:55+01:00</time>
      </trkpt>
      <trkpt lat="42.99837" lon="-0.21219">
        <ele>1359</ele>
        <time>2022-01-28T13:43:21+01:00</time>
      </trkpt>
      <trkpt lat="42.99856" lon="-0.21202">
        <ele>1359</ele>
        <time>2022-01-28T13:43:45+01:00</time>
      </trkpt>
      <trkpt lat="42.99874" lon="-0.21183">
        <ele>1362</ele>
        <time>2022-01-28T13:44:08+01:00</time>
      </trkpt>
      <trkpt lat="42.99893" lon="-0.21166">
        <ele>1363</ele>
        <time>2022-01-28T13:44:32+01:00</time>
      </trkpt>
      <trkpt lat="42.9991" lon="-0.21145">
        <ele>1363</ele>
        <time>2022-01-28T13:44:55+01:00</time>
      </trkpt>
      <trkpt lat="42.99929" lon="-0.21128">
        <ele>1363</ele>
        <time>2022-01-28T13:45:18+01:00</time>
      </trkpt>
      <trkpt lat="42.9995" lon="-0.21114">
        <ele>1363</ele>
        <time>2022-01-28T13:45:38+01:00</time>
      </trkpt>
      <trkpt lat="42.99966" lon="-0.21093">
        <ele>1364</ele>
        <time>2022-01-28T13:45:59+01:00</time>
      </trkpt>
      <trkpt lat="42.99983" lon="-0.21071">
        <ele>1369</ele>
        <time>2022-01-28T13:46:17+01:00</time>
      </trkpt>
      <trkpt lat="43" lon="-0.2105">
        <ele>1371</ele>
        <time>2022-01-28T13:46:38+01:00</time>
      </trkpt>
      <trkpt lat="43.00014" lon="-0.21026">
        <ele>1370</ele>
        <time>2022-01-28T13:46:59+01:00</time>
      </trkpt>
      <trkpt lat="43.00025" lon="-0.20998">
        <ele>1372</ele>
        <time>2022-01-28T13:47:18+01:00</time>
      </trkpt>
      <trkpt lat="43.00033" lon="-0.20969">
        <ele>1375</ele>
        <time>2022-01-28T13:47:36+01:00</time>
      </trkpt>
      <trkpt lat="43.00029" lon="-0.20939">
        <ele>1378</ele>
        <time>2022-01-28T13:47:59+01:00</time>
      </trkpt>
      <trkpt lat="43.00019" lon="-0.2091">
        <ele>1375</ele>
        <time>2022-01-28T13:48:23+01:00</time>
      </trkpt>
      <trkpt lat="43.00009" lon="-0.20882">
        <ele>1373</ele>
        <time>2022-01-28T13:48:45+01:00</time>
      </trkpt>
      <trkpt lat="43" lon="-0.20854">
        <ele>1376</ele>
        <time>2022-01-28T13:49:06+01:00</time>
      </trkpt>
      <trkpt lat="42.99989" lon="-0.20826">
        <ele>1375</ele>
        <time>2022-01-28T13:49:29+01:00</time>
      </trkpt>
      <trkpt lat="42.9998" lon="-0.20797">
        <ele>1374</ele>
        <time>2022-01-28T13:49:54+01:00</time>
      </trkpt>
      <trkpt lat="42.99976" lon="-0.20766">
        <ele>1373</ele>
        <time>2022-01-28T13:50:18+01:00</time>
      </trkpt>
      <trkpt lat="42.99974" lon="-0.20736">
        <ele>1373</ele>
        <time>2022-01-28T13:50:40+01:00</time>
      </trkpt>
      <trkpt lat="42.99974" lon="-0.20704">
        <ele>1375</ele>
        <time>2022-01-28T13:51:01+01:00</time>
      </trkpt>
      <trkpt lat="42.99978" lon="-0.20673">
        <ele>1379</ele>
        <time>2022-01-28T13:51:23+01:00</time>
      </trkpt>
      <trkpt lat="42.99984" lon="-0.20641">
        <ele>1380</ele>
        <time>2022-01-28T13:51:43+01:00</time>
      </trkpt>
      <trkpt lat="42.99994" lon="-0.20613">
        <ele>1382</ele>
        <time>2022-01-28T13:52:03+01:00</time>
      </trkpt>
      <trkpt lat="43.00002" lon="-0.20583">
        <ele>1385</ele>
        <time>2022-01-28T13:52:23+01:00</time>
      </trkpt>
      <trkpt lat="43.0001" lon="-0.20553">
        <ele>1388</ele>
        <time>2022-01-28T13:52:48+01:00</time>
      </trkpt>
      <trkpt lat="43.00016" lon="-0.20523">
        <ele>1388</ele>
        <time>2022-01-28T13:53:09+01:00</time>
      </trkpt>
      <trkpt lat="43.00017" lon="-0.20492">
        <ele>1389</ele>
        <time>2022-01-28T13:53:31+01:00</time>
      </trkpt>
      <trkpt lat="43.00014" lon="-0.20461">
        <ele>1387</ele>
        <time>2022-01-28T13:53:54+01:00</time>
      </trkpt>
      <trkpt lat="43.00008" lon="-0.20431">
        <ele>1389</ele>
        <time>2022-01-28T13:54:17+01:00</time>
      </trkpt>
      <trkpt lat="43.00001" lon="-0.20401">
        <ele>1387</ele>
        <time>2022-01-28T13:54:40+01:00</time>
      </trkpt>
      <trkpt lat="42.99995" lon="-0.20371">
        <ele>1383</ele>
        <time>2022-01-28T13:55:04+01:00</time>
      </trkpt>
      <trkpt lat="42.99989" lon="-0.20341">
        <ele>1381</ele>
        <time>2022-01-28T13:55:27+01:00</time>
      </trkpt>
      <trkpt lat="42.99969" lon="-0.20325">
        <ele>1381</ele>
        <time>2022-01-28T13:55:49+01:00</time>
      </trkpt>
      <trkpt lat="42.99946" lon="-0.20327">
        <ele>1380</ele>
        <time>2022-01-28T13:56:11+01:00</time>
      </trkpt>
      <trkpt lat="42.99923" lon="-0.20321">
        <ele>1381</ele>
        <time>2022-01-28T13:56:34+01:00</time>
      </trkpt>
      <trkpt lat="42.99901" lon="-0.20324">
        <ele>1385</ele>
        <time>2022-01-28T13:56:56+01:00</time>
      </trkpt>
      <trkpt lat="42.99882" lon="-0.20342">
        <ele>1389</ele>
        <time>2022-01-28T13:57:20+01:00</time>
      </trkpt>
      <trkpt lat="42.99861" lon="-0.20357">
        <ele>1394</ele>
        <time>2022-01-28T13:57:44+01:00</time>
      </trkpt>
      <trkpt lat="42.99839" lon="-0.20366">
        <ele>1396</ele>
        <time>2022-01-28T13:58:06+01:00</time>
      </trkpt>
      <trkpt lat="42.99818" lon="-0.20379">
        <ele>1397</ele>
        <time>2022-01-28T13:58:27+01:00</time>
      </trkpt>
      <trkpt lat="42.99795" lon="-0.20378">
        <ele>1401</ele>
        <time>2022-01-28T13:58:47+01:00</time>
      </trkpt>
      <trkpt lat="42.99773" lon="-0.20368">
        <ele>1401</ele>
        <time>2022-01-28T13:59:08+01:00</time>
      </trkpt>
      <trkpt lat="42.99751" lon="-0.20356">
        <ele>1397</ele>
        <time>2022-01-28T13:59:35+01:00</time>
      </trkpt>
      <trkpt lat="42.99729" lon="-0.20353">
        <ele>1400</ele>
        <time>2022-01-28T13:59:56+01:00</time>
      </trkpt>
      <trkpt lat="42.99706" lon="-0.20358">
        <ele>1398</ele>
        <time>2022-01-28T14:00:19+01:00</time>
      </trkpt>
      <trkpt lat="42.99684" lon="-0.20345">
        <ele>1400</ele>
        <time>2022-01-28T14:00:43+01:00</time>
      </trkpt>
      <trkpt lat="42.99661" lon="-0.20343">
        <ele>1398</ele>
        <time>2022-01-28T14:01:05+01:00</time>
      </trkpt>
      <trkpt lat="42.99638" lon="-0.20343">
        <ele>1401</ele>
        <time>2022-01-28T14:01:27+01:00</time>
      </trkpt>
      <trkpt lat="42.99615" lon="-0.20351">
        <ele>1404</ele>
        <time>2022-01-28T14:01:49+01:00</time>
      </trkpt>
      <trkpt lat="42.99595" lon="-0.20365">
        <ele>1408</ele>
        <time>2022-01-28T14:02:11+01:00</time>
      </trkpt>
      <trkpt lat="42.99573" lon="-0.20376">
        <ele>1410</ele>
        <time>2022-01-28T14:02:35+01:00</time>
      </trkpt>
      <trkpt lat="42.99563" lon="-0.20404">
        <ele>1403</ele>
        <time>2022-01-28T14:02:57+01:00</time>
      </trkpt>
      <trkpt lat="42.99553" lon="-0.20433">
        <ele>1401</ele>
        <time>2022-01-28T14:03:19+01:00</time>
      </trkpt>
      <trkpt lat="42.99531" lon="-0.20439">
        <ele>1401</ele>
        <time>2022-01-28T14:03:41+01:00</time>
      </trkpt>
      <trkpt lat="42.99519" lon="-0.20466">
        <ele>1403</ele>
        <time>2022-01-28T14:04:03+01:00</time>
      </trkpt>
      <trkpt lat="42.99513" lon="-0.20497">
        <ele>1401</ele>
        <time>2022-01-28T14:04:25+01:00</time>
      </trkpt>
      <trkpt lat="42.9949" lon="-0.20503">
        <ele>1402</ele>
        <time>2022-01-28T14:04:49+01:00</time>
      </trkpt>
      <trkpt lat="42.99467" lon="-0.205">
        <ele>1404</ele>
        <time>2022-01-28T14:05:09+01:00</time>
      </trkpt>
      <trkpt lat="42.99446" lon="-0.20489">
        <ele>1407</ele>
        <time>2022-01-28T14:05:30+01:00</time>
      </trkpt>
      <trkpt lat="42.99427" lon="-0.20471">
        <ele>1408</ele>
        <time>2022-01-28T14:05:51+01:00</time>
      </trkpt>
      <trkpt lat="42.99412" lon="-0.20448">
        <ele>1409</ele>
        <time>2022-01-28T14:06:12+01:00</time>
      </trkpt>
      <trkpt lat="42.99397" lon="-0.20424">
        <ele>1408</ele>
        <time>2022-01-28T14:06:35+01:00</time>
      </trkpt>
      <trkpt lat="42.99383" lon="-0.20399">
        <ele>1406</ele>
        <time>2022-01-28T14:06:57+01:00</time>
      </trkpt>
      <trkpt lat="42.9936" lon="-0.20393">
        <ele>1402</ele>
        <time>2022-01-28T14:07:20+01:00</time>
      </trkpt>
      <trkpt lat="42.99338" lon="-0.20398">
        <ele>1404</ele>
        <time>2022-01-28T14:07:43+01:00</time>
      </trkpt>
      <trkpt lat="42.99317" lon="-0.20409">
        <ele>1413</ele>
        <time>2022-01-28T14:08:04+01:00</time>
      </trkpt>
      <trkpt lat="42.99294" lon="-0.20416">
        <ele>1417</ele>
        <time>2022-01-28T14:08:22+01:00</time>
      </trkpt>
      <trkpt lat="42.99272" lon="-0.20409">
        <ele>1416</ele>
        <time>2022-01-28T14:08:41+01:00</time>
      </trkpt>
      <trkpt lat="42.99257" lon="-0.20386">
        <ele>1411</ele>
        <time>2022-01-28T14:09:06+01:00</time>
      </trkpt>
      <trkpt lat="42.99241" lon="-0.20364">
        <ele>1408</ele>
        <time>2022-01-28T14:09:32+01:00</time>
      </trkpt>
      <trkpt lat="42.99218" lon="-0.20358">
        <ele>1409</ele>
        <time>2022-01-28T14:09:53+01:00</time>
      </trkpt>
      <trkpt lat="42.99196" lon="-0.20349">
        <ele>1411</ele>
        <time>2022-01-28T14:10:15+01:00</time>
      </trkpt>
      <trkpt lat="42.99175" lon="-0.20334">
        <ele>1415</ele>
        <time>2022-01-28T14:10:36+01:00</time>
      </trkpt>
      <trkpt lat="42.99154" lon="-0.20322">
        <ele>1415</ele>
        <time>2022-01-28T14:10:58+01:00</time>
      </trkpt>
    </trkseg>
  </trk>
</gpx>